createdAt,value
2022-08-31T00:02:12.331Z,14.40
2022-08-31T00:07:35.259Z,14.10
2022-08-31T00:12:57.601Z,13.90
2022-08-31T00:18:21.082Z,14.00
2022-08-31T00:23:43.362Z,13.90
2022-08-31T00:29:05.746Z,13.70
2022-08-31T00:34:28.090Z,13.60
2022-08-31T00:39:50.402Z,13.40
2022-08-31T00:45:13.400Z,13.40
2022-08-31T00:50:35.701Z,13.30
2022-08-31T00:55:59.206Z,13.20
2022-08-31T01:01:22.211Z,12.90
2022-08-31T01:06:46.140Z,12.80
2022-08-31T01:12:09.579Z,12.80
2022-08-31T01:17:34.554Z,12.60
2022-08-31T01:23:11.191Z,12.50
2022-08-31T01:28:33.529Z,12.50
2022-08-31T01:33:57.268Z,12.50
2022-08-31T01:39:20.584Z,12.60
2022-08-31T01:44:42.882Z,12.50
2022-08-31T01:50:06.397Z,12.50
2022-08-31T01:55:28.629Z,12.40
2022-08-31T02:00:51.232Z,12.50
2022-08-31T02:06:14.324Z,12.50
2022-08-31T02:11:37.078Z,12.50
2022-08-31T02:16:59.314Z,12.50
2022-08-31T02:22:21.584Z,12.70
2022-08-31T02:27:43.877Z,12.80
2022-08-31T02:33:06.137Z,12.80
2022-08-31T02:38:29.024Z,12.80
2022-08-31T02:43:52.377Z,12.90
2022-08-31T02:49:14.892Z,12.90
2022-08-31T02:54:38.153Z,12.90
2022-08-31T03:00:01.139Z,12.90
2022-08-31T03:05:25.808Z,13.00
2022-08-31T03:10:48.094Z,13.00
2022-08-31T03:16:13.526Z,13.10
2022-08-31T03:21:35.978Z,13.10
2022-08-31T03:26:58.268Z,13.00
2022-08-31T03:32:20.641Z,13.00
2022-08-31T03:37:46.070Z,12.90
2022-08-31T03:43:11.516Z,12.80
2022-08-31T03:48:35.253Z,12.90
2022-08-31T03:53:57.512Z,12.90
2022-08-31T03:59:20.529Z,12.90
2022-08-31T04:05:18.251Z,12.80
2022-08-31T04:10:58.957Z,12.70
2022-08-31T04:16:41.163Z,12.70
2022-08-31T04:22:22.064Z,12.70
2022-08-31T04:28:10.855Z,12.70
2022-08-31T04:33:37.633Z,12.70
2022-08-31T04:39:02.982Z,13.00
2022-08-31T04:44:26.895Z,13.10
2022-08-31T04:49:52.179Z,13.00
2022-08-31T04:55:14.475Z,13.10
2022-08-31T05:00:38.331Z,13.20
2022-08-31T05:06:14.833Z,13.40
2022-08-31T05:11:37.453Z,13.60
2022-08-31T05:17:01.380Z,13.80
2022-08-31T05:22:25.731Z,14.60
2022-08-31T05:27:49.945Z,15.70
2022-08-31T05:33:12.564Z,16.30
2022-08-31T05:38:35.609Z,16.50
2022-08-31T05:43:58.722Z,17.10
2022-08-31T05:49:21.105Z,17.60
2022-08-31T05:54:43.763Z,17.00
2022-08-31T06:00:08.533Z,16.80
2022-08-31T06:05:35.988Z,16.50
2022-08-31T06:10:59.553Z,16.30
2022-08-31T06:16:23.157Z,16.10
2022-08-31T06:21:51.367Z,16.30
2022-08-31T06:27:25.331Z,16.60
2022-08-31T06:32:52.408Z,16.60
2022-08-31T06:38:23.149Z,16.90
2022-08-31T06:44:14.538Z,17.00
2022-08-31T06:49:57.928Z,16.90
2022-08-31T06:55:20.918Z,17.20
2022-08-31T07:01:10.263Z,16.90
2022-08-31T07:07:03.599Z,17.10
2022-08-31T07:12:27.758Z,17.10
2022-08-31T07:17:52.203Z,17.10
2022-08-31T07:23:17.712Z,17.30
2022-08-31T07:29:00.274Z,17.50
2022-08-31T07:34:26.392Z,17.40
2022-08-31T07:40:20.233Z,17.60
2022-08-31T07:45:44.347Z,17.40
2022-08-31T07:51:15.176Z,17.40
2022-08-31T07:57:07.006Z,17.40
2022-08-31T08:02:31.313Z,18.00
2022-08-31T08:07:57.853Z,18.10
2022-08-31T08:13:41.168Z,18.30
2022-08-31T08:19:13.159Z,18.30
2022-08-31T08:24:36.887Z,18.40
2022-08-31T08:30:26.353Z,19.00
2022-08-31T08:36:03.345Z,18.90
2022-08-31T08:41:28.563Z,19.30
2022-08-31T08:46:58.090Z,19.60
2022-08-31T08:52:41.656Z,19.50
2022-08-31T08:58:08.201Z,18.90
2022-08-31T09:03:48.780Z,19.20
2022-08-31T09:09:32.847Z,19.20
2022-08-31T09:15:18.166Z,19.10
2022-08-31T09:20:42.869Z,19.00
2022-08-31T09:26:11.553Z,18.80
2022-08-31T09:32:07.502Z,18.70
2022-08-31T09:37:46.483Z,18.90
2022-08-31T09:43:16.461Z,18.70
2022-08-31T09:48:46.793Z,18.50
2022-08-31T09:54:34.162Z,18.60
2022-08-31T09:59:56.920Z,18.60
2022-08-31T10:05:40.724Z,18.60
2022-08-31T10:11:12.870Z,18.30
2022-08-31T10:16:48.438Z,18.40
2022-08-31T10:22:25.570Z,18.30
2022-08-31T10:28:20.560Z,18.20
2022-08-31T10:34:16.498Z,18.20
2022-08-31T10:39:42.261Z,18.10
2022-08-31T10:45:16.327Z,18.20
2022-08-31T10:51:06.981Z,18.30
2022-08-31T10:56:47.158Z,18.30
2022-08-31T11:02:29.174Z,18.40
2022-08-31T11:08:01.984Z,18.60
2022-08-31T11:14:00.576Z,18.80
2022-08-31T11:20:00.315Z,18.80
2022-08-31T11:25:47.752Z,18.90
2022-08-31T11:31:24.209Z,19.10
2022-08-31T11:36:56.811Z,19.10
2022-08-31T11:42:42.667Z,19.20
2022-08-31T11:48:08.202Z,19.10
2022-08-31T11:53:44.619Z,19.10
2022-08-31T11:59:35.601Z,19.30
2022-08-31T12:05:08.217Z,19.30
2022-08-31T12:10:43.133Z,19.70
2022-08-31T12:16:30.356Z,19.70
2022-08-31T12:22:23.149Z,19.50
2022-08-31T12:27:53.581Z,20.00
2022-08-31T12:33:21.193Z,20.20
2022-08-31T12:38:45.764Z,20.20
2022-08-31T12:44:13.992Z,20.40
2022-08-31T12:50:07.374Z,20.10
2022-08-31T12:55:51.733Z,20.00
2022-08-31T13:01:21.119Z,20.30
2022-08-31T13:06:48.727Z,20.30
2022-08-31T13:12:24.073Z,20.10
2022-08-31T13:17:47.554Z,20.50
2022-08-31T13:23:27.708Z,20.50
2022-08-31T13:28:56.944Z,20.30
2022-08-31T13:34:27.614Z,20.00
2022-08-31T13:39:50.678Z,20.30
2022-08-31T13:45:31.278Z,20.30
2022-08-31T13:51:02.419Z,20.70
2022-08-31T13:56:49.657Z,20.30
2022-08-31T14:02:22.598Z,20.30
2022-08-31T14:07:47.062Z,20.10
2022-08-31T14:13:19.516Z,20.30
2022-08-31T14:18:45.702Z,20.50
2022-08-31T14:24:12.379Z,20.30
2022-08-31T14:29:37.383Z,20.00
2022-08-31T14:35:02.400Z,20.10
2022-08-31T14:40:25.485Z,20.00
2022-08-31T14:45:48.578Z,19.90
2022-08-31T14:51:12.134Z,20.00
2022-08-31T14:56:39.600Z,19.70
2022-08-31T15:02:02.931Z,19.50
2022-08-31T15:07:26.975Z,19.40
2022-08-31T15:12:50.996Z,19.40
2022-08-31T15:18:14.948Z,19.50
2022-08-31T15:23:42.026Z,19.40
2022-08-31T15:29:06.552Z,19.40
2022-08-31T15:34:34.421Z,19.20
2022-08-31T15:40:02.137Z,19.10
2022-08-31T15:45:30.324Z,18.90
2022-08-31T15:51:00.797Z,18.80
2022-08-31T15:56:24.015Z,18.80
2022-08-31T16:01:46.918Z,18.70
2022-08-31T16:07:11.324Z,18.60
2022-08-31T16:12:35.182Z,18.50
2022-08-31T16:18:03.364Z,18.40
2022-08-31T16:23:29.648Z,18.30
2022-08-31T16:28:53.606Z,18.20
2022-08-31T16:34:18.013Z,18.10
2022-08-31T16:39:47.239Z,18.00
2022-08-31T16:45:11.032Z,17.80
2022-08-31T16:50:34.618Z,17.60
2022-08-31T16:56:00.225Z,17.60
2022-08-31T17:01:26.937Z,17.40
2022-08-31T17:06:50.188Z,17.30
2022-08-31T17:12:17.165Z,17.20
2022-08-31T17:17:40.732Z,16.90
2022-08-31T17:23:06.896Z,16.60
2022-08-31T17:28:30.407Z,16.30
2022-08-31T17:33:54.366Z,16.20
2022-08-31T17:39:20.336Z,16.20
2022-08-31T17:44:48.501Z,16.20
2022-08-31T17:50:20.601Z,16.40
2022-08-31T17:55:44.247Z,16.40
2022-08-31T18:01:08.518Z,16.40
2022-08-31T18:06:32.224Z,16.30
2022-08-31T18:11:56.460Z,16.20
2022-08-31T18:17:22.580Z,16.20
2022-08-31T18:22:52.437Z,16.20
2022-08-31T18:28:16.304Z,16.10
2022-08-31T18:33:39.754Z,16.00
2022-08-31T18:39:02.789Z,15.90
2022-08-31T18:44:44.689Z,15.70
2022-08-31T18:50:08.785Z,15.60
2022-08-31T18:55:32.180Z,15.60
2022-08-31T19:00:58.044Z,15.50
2022-08-31T19:06:24.162Z,15.50
2022-08-31T19:11:51.420Z,15.40
2022-08-31T19:17:15.822Z,15.50
2022-08-31T19:22:41.143Z,15.40
2022-08-31T19:28:08.295Z,15.30
2022-08-31T19:33:33.314Z,15.30
2022-08-31T19:38:56.704Z,15.40
2022-08-31T19:44:21.193Z,15.50
2022-08-31T19:49:47.705Z,15.50
2022-08-31T19:55:13.297Z,15.50
2022-08-31T20:00:38.322Z,15.50
2022-08-31T20:06:14.015Z,15.50
2022-08-31T20:11:37.689Z,15.50
2022-08-31T20:17:01.151Z,15.40
2022-08-31T20:22:29.665Z,15.30
2022-08-31T20:27:54.192Z,15.20
2022-08-31T20:33:17.540Z,15.10
2022-08-31T20:38:41.533Z,15.10
2022-08-31T20:44:16.707Z,15.10
2022-08-31T20:49:42.163Z,15.20
2022-08-31T20:55:06.721Z,15.10
2022-08-31T21:00:30.712Z,15.10
2022-08-31T21:05:53.613Z,15.10
2022-08-31T21:11:18.807Z,15.10
2022-08-31T21:16:41.482Z,15.00
2022-08-31T21:22:06.709Z,14.90
2022-08-31T21:27:29.583Z,14.80
2022-08-31T21:32:51.808Z,14.80
2022-08-31T21:38:14.639Z,14.90
2022-08-31T21:43:37.749Z,15.00
2022-08-31T21:49:01.262Z,15.00
2022-08-31T21:54:26.299Z,15.10
2022-08-31T21:59:50.451Z,15.00
2022-08-31T22:05:14.282Z,15.00
2022-08-31T22:10:44.435Z,15.00
2022-08-31T22:16:14.223Z,15.00
2022-08-31T22:21:42.522Z,15.00
2022-08-31T22:27:09.220Z,15.00
2022-08-31T22:32:31.816Z,14.90
2022-08-31T22:37:54.163Z,14.80
2022-08-31T22:43:17.289Z,14.80
2022-08-31T22:48:39.558Z,14.70
2022-08-31T22:54:02.829Z,14.60
2022-08-31T22:59:30.552Z,14.50
2022-08-31T23:04:52.813Z,14.40
2022-08-31T23:10:18.621Z,14.40
2022-08-31T23:15:41.463Z,14.40
2022-08-31T23:21:04.902Z,14.40
2022-08-31T23:26:28.972Z,14.40
2022-08-31T23:31:51.919Z,14.30
2022-08-31T23:37:14.261Z,14.20
2022-08-31T23:42:41.106Z,14.20
2022-08-31T23:48:03.768Z,14.20
2022-08-31T23:53:28.107Z,14.00
2022-08-31T23:58:50.369Z,14.00
